Time;durP1;ratioP1;P1;durP2;ratioP2;P2;SDS_P1;SDS_P2;PMS_P1;PMS_P2;Temp;Humidity;BMP_temperature;BMP_pressure;BME280_temperature;BME280_humidity;BME280_pressure;Samples;Min_cycle;Max_cycle;Signal;HPM_P1;HPM_P2
2022/04/22 00:01:42;;;;;;;0.70;0.70;;;;;;;;;;1780163;79;26227;-44
2022/04/22 00:04:09;;;;;;;0.75;0.75;;;;;;;;;;1791405;80;26278;-45
2022/04/22 00:06:37;;;;;;;0.50;0.50;;;;;;;;;;1792488;80;26286;-42
2022/04/22 00:09:04;;;;;;;0.70;0.70;;;;;;;;;;1789900;79;26272;-41
2022/04/22 00:11:32;;;;;;;0.80;0.80;;;;;;;;;;1789517;79;26291;-41
2022/04/22 00:14:01;;;;;;;1.02;0.62;;;;;;;;;;1782318;80;26570;-44
2022/04/22 00:16:30;;;;;;;0.90;0.60;;;;;;;;;;1774308;79;26701;-46
2022/04/22 00:18:59;;;;;;;0.53;0.53;;;;;;;;;;1848330;77;27273;-46
2022/04/22 00:21:26;;;;;;;0.60;0.60;;;;;;;;;;1847156;77;26371;-46
2022/04/22 00:23:54;;;;;;;0.80;0.80;;;;;;;;;;1847510;76;26297;-45
2022/04/22 00:26:22;;;;;;;0.70;0.70;;;;;;;;;;1847210;76;26474;-48
2022/04/22 00:28:49;;;;;;;0.62;0.62;;;;;;;;;;1848178;77;26713;-44
2022/04/22 00:31:17;;;;;;;0.70;0.70;;;;;;;;;;1854778;76;26281;-42
2022/04/22 00:33:44;;;;;;;0.60;0.60;;;;;;;;;;1846168;76;26253;-48
2022/04/22 00:36:11;;;;;;;0.85;0.70;;;;;;;;;;1847086;77;26257;-44
2022/04/22 00:38:38;;;;;;;0.60;0.60;;;;;;;;;;1848490;77;26576;-43
2022/04/22 00:41:06;;;;;;;0.70;0.70;;;;;;;;;;1848439;77;26277;-45
2022/04/22 00:43:44;;;;;;;0.70;0.70;;;;;;;;;;1848624;77;26257;-42
2022/04/22 00:46:12;;;;;;;0.70;0.70;;;;;;;;;;1837783;76;26335;-44
2022/04/22 00:48:40;;;;;;;0.70;0.70;;;;;;;;;;1848626;77;26274;-45
2022/04/22 00:51:09;;;;;;;0.68;0.68;;;;;;;;;;1840591;77;26339;-44
2022/04/22 00:53:37;;;;;;;1.42;0.70;;;;;;;;;;1859810;76;26255;-44
2022/04/22 00:56:06;;;;;;;1.17;0.62;;;;;;;;;;1862912;76;26235;-44
2022/04/22 00:58:35;;;;;;;0.70;0.70;;;;;;;;;;1858695;76;26658;-45
2022/04/22 01:01:02;;;;;;;0.70;0.70;;;;;;;;;;1847647;77;26370;-44
2022/04/22 01:03:29;;;;;;;0.80;0.68;;;;;;;;;;1840137;76;26254;-46
2022/04/22 01:11:34;;;;;;;0.60;0.60;;;;;;;;;;1848752;77;26349;-42
2022/04/22 01:14:01;;;;;;;1.75;0.90;;;;;;;;;;1848389;77;26269;-46
2022/04/22 01:16:28;;;;;;;0.82;0.80;;;;;;;;;;1840458;77;26284;-43
2022/04/22 01:18:55;;;;;;;0.80;0.80;;;;;;;;;;1848337;76;26377;-45
2022/04/22 01:21:23;;;;;;;0.70;0.70;;;;;;;;;;1848770;77;26579;-44
2022/04/22 01:23:50;;;;;;;0.60;0.60;;;;;;;;;;1847988;77;26335;-48
2022/04/22 01:26:18;;;;;;;0.70;0.70;;;;;;;;;;1842278;77;26309;-42
2022/04/22 01:28:45;;;;;;;0.68;0.68;;;;;;;;;;1832646;77;26323;-46
2022/04/22 01:31:13;;;;;;;0.70;0.70;;;;;;;;;;1848337;76;26629;-47
2022/04/22 01:33:40;;;;;;;0.60;0.60;;;;;;;;;;1848483;77;26253;-44
2022/04/22 01:36:08;;;;;;;0.70;0.70;;;;;;;;;;1866537;76;26239;-43
2022/04/22 01:38:37;;;;;;;0.60;0.60;;;;;;;;;;1848709;77;26382;-41
2022/04/22 01:41:04;;;;;;;0.60;0.60;;;;;;;;;;1843728;76;26255;-46
2022/04/22 01:43:34;;;;;;;0.62;0.62;;;;;;;;;;1848610;77;26847;-46
2022/04/22 01:46:01;;;;;;;0.70;0.70;;;;;;;;;;1842917;76;27196;-47
2022/04/22 01:48:30;;;;;;;0.70;0.70;;;;;;;;;;1848224;77;26288;-42
2022/04/22 01:50:58;;;;;;;1.15;0.70;;;;;;;;;;1848638;77;26313;-50
2022/04/22 01:53:25;;;;;;;0.60;0.60;;;;;;;;;;1854583;76;26315;-48
2022/04/22 01:55:53;;;;;;;1.00;0.80;;;;;;;;;;1842807;76;26308;-46
2022/04/22 01:58:20;;;;;;;0.98;0.70;;;;;;;;;;1843180;77;26381;-46
2022/04/22 02:00:47;;;;;;;0.70;0.70;;;;;;;;;;1842694;77;26250;-48
2022/04/22 02:03:15;;;;;;;0.70;0.70;;;;;;;;;;1849478;76;26331;-46
2022/04/22 02:05:43;;;;;;;0.70;0.70;;;;;;;;;;1861805;76;26777;-44
2022/04/22 02:08:10;;;;;;;0.68;0.68;;;;;;;;;;1848273;77;26277;-43
2022/04/22 02:10:38;;;;;;;0.53;0.53;;;;;;;;;;1852611;77;26652;-42
2022/04/22 02:13:07;;;;;;;1.65;0.68;;;;;;;;;;1857553;76;26257;-43
2022/04/22 02:15:35;;;;;;;0.70;0.70;;;;;;;;;;1861427;76;26289;-43
2022/04/22 02:18:03;;;;;;;0.60;0.60;;;;;;;;;;1857584;77;26317;-47
2022/04/22 02:20:30;;;;;;;0.80;0.80;;;;;;;;;;1847391;77;26246;-41
2022/04/22 02:22:57;;;;;;;0.57;0.57;;;;;;;;;;1857190;76;26289;-44
2022/04/22 02:25:24;;;;;;;0.60;0.60;;;;;;;;;;1857565;76;26253;-43
2022/04/22 02:30:37;;;;;;;0.60;0.60;;;;;;;;;;1840885;76;26344;-43
2022/04/22 02:33:05;;;;;;;0.70;0.70;;;;;;;;;;1844466;77;26338;-41
2022/04/22 02:35:32;;;;;;;0.60;0.60;;;;;;;;;;1869490;76;26336;-45
2022/04/22 02:38:00;;;;;;;0.70;0.70;;;;;;;;;;1864568;76;26751;-44
2022/04/22 02:45:57;;;;;;;0.60;0.60;;;;;;;;;;1841838;76;26901;-42
2022/04/22 02:48:25;;;;;;;0.62;0.62;;;;;;;;;;1862922;76;26792;-45
2022/04/22 02:50:52;;;;;;;0.70;0.70;;;;;;;;;;1851060;77;26706;-42
2022/04/22 02:53:20;;;;;;;0.60;0.60;;;;;;;;;;1849469;76;26749;-44
2022/04/22 02:55:49;;;;;;;0.57;0.57;;;;;;;;;;1857561;77;26340;-44
2022/04/22 02:58:18;;;;;;;0.65;0.62;;;;;;;;;;1850895;77;26287;-47
2022/04/22 03:00:45;;;;;;;0.75;0.75;;;;;;;;;;1866591;76;26865;-46
2022/04/22 03:03:12;;;;;;;0.80;0.80;;;;;;;;;;1855294;77;26241;-43
2022/04/22 03:05:40;;;;;;;0.62;0.62;;;;;;;;;;1854695;77;26269;-45
2022/04/22 03:08:08;;;;;;;0.88;0.70;;;;;;;;;;1855438;76;26331;-42
2022/04/22 03:10:36;;;;;;;0.70;0.70;;;;;;;;;;1858476;76;26304;-41
2022/04/22 03:13:04;;;;;;;0.60;0.60;;;;;;;;;;1863618;76;26315;-43
2022/04/22 03:15:33;;;;;;;0.70;0.70;;;;;;;;;;1859123;76;26259;-42
2022/04/22 03:18:03;;;;;;;0.62;0.62;;;;;;;;;;1864166;76;26355;-47
2022/04/22 03:20:30;;;;;;;0.70;0.70;;;;;;;;;;1855829;77;26335;-44
2022/04/22 03:22:57;;;;;;;0.60;0.60;;;;;;;;;;1867094;76;26253;-43
2022/04/22 03:25:25;;;;;;;0.60;0.60;;;;;;;;;;1857420;77;26249;-48
2022/04/22 03:27:52;;;;;;;0.60;0.60;;;;;;;;;;1856987;76;26725;-45
2022/04/22 03:30:20;;;;;;;0.70;0.70;;;;;;;;;;1856536;77;26285;-49
2022/04/22 03:32:47;;;;;;;0.60;0.60;;;;;;;;;;1854674;77;26629;-43
2022/04/22 03:35:14;;;;;;;0.70;0.70;;;;;;;;;;1856273;77;26305;-44
2022/04/22 03:37:42;;;;;;;0.62;0.62;;;;;;;;;;1857152;77;26213;-48
2022/04/22 03:40:10;;;;;;;0.60;0.60;;;;;;;;;;1854589;76;25947;-42
2022/04/22 03:42:38;;;;;;;0.70;0.70;;;;;;;;;;1853769;77;26257;-43
2022/04/22 03:45:05;;;;;;;0.70;0.70;;;;;;;;;;1855560;76;26299;-42
2022/04/22 03:47:33;;;;;;;0.60;0.60;;;;;;;;;;1856989;77;26252;-43
2022/04/22 03:50:00;;;;;;;0.68;0.68;;;;;;;;;;1856737;76;26689;-44
2022/04/22 03:52:27;;;;;;;0.75;0.75;;;;;;;;;;1856939;77;26709;-45
2022/04/22 03:54:55;;;;;;;0.90;0.90;;;;;;;;;;1856700;76;26767;-47
2022/04/22 04:00:08;;;;;;;1.17;0.72;;;;;;;;;;1854908;77;26779;-51
2022/04/22 04:02:35;;;;;;;0.70;0.70;;;;;;;;;;1854933;77;26327;-46
2022/04/22 04:05:03;;;;;;;0.75;0.70;;;;;;;;;;1854150;77;26724;-44
2022/04/22 04:07:31;;;;;;;0.60;0.60;;;;;;;;;;1855321;76;26250;-46
2022/04/22 04:18:14;;;;;;;0.80;0.80;;;;;;;;;;1861702;76;26753;-42
2022/04/22 04:23:27;;;;;;;0.75;0.75;;;;;;;;;;1856456;77;26875;-45
2022/04/22 04:25:54;;;;;;;0.60;0.60;;;;;;;;;;1856493;76;26434;-46
2022/04/22 04:28:23;;;;;;;0.80;0.80;;;;;;;;;;1856783;76;26280;-47
2022/04/22 04:30:50;;;;;;;0.70;0.70;;;;;;;;;;1854029;76;26950;-47
2022/04/22 04:33:18;;;;;;;0.70;0.70;;;;;;;;;;1854882;76;26261;-44
2022/04/22 04:35:47;;;;;;;0.70;0.70;;;;;;;;;;1854457;77;26261;-42
2022/04/22 04:38:14;;;;;;;1.10;0.70;;;;;;;;;;1855832;77;26285;-42
2022/04/22 04:40:42;;;;;;;0.53;0.53;;;;;;;;;;1856403;76;26285;-50
2022/04/22 04:43:09;;;;;;;0.65;0.65;;;;;;;;;;1855705;77;26765;-48
2022/04/22 04:45:37;;;;;;;0.95;0.60;;;;;;;;;;1854934;77;26315;-48
2022/04/22 04:48:05;;;;;;;0.70;0.70;;;;;;;;;;1854594;77;26783;-46
2022/04/22 04:50:32;;;;;;;0.60;0.60;;;;;;;;;;1854997;77;25708;-48
2022/04/22 04:53:00;;;;;;;0.80;0.80;;;;;;;;;;1856610;76;26898;-45
2022/04/22 04:55:27;;;;;;;0.70;0.70;;;;;;;;;;1856234;77;26331;-42
2022/04/22 04:57:54;;;;;;;0.70;0.70;;;;;;;;;;1856064;77;26316;-47
2022/04/22 05:00:22;;;;;;;0.80;0.80;;;;;;;;;;1850222;77;26328;-44
2022/04/22 05:02:49;;;;;;;3.08;0.90;;;;;;;;;;1857007;76;26265;-43
2022/04/22 05:05:16;;;;;;;0.80;0.80;;;;;;;;;;1855830;77;26354;-45
2022/04/22 05:07:48;;;;;;;0.65;0.65;;;;;;;;;;1857000;77;26523;-47
2022/04/22 05:10:17;;;;;;;0.80;0.80;;;;;;;;;;1850775;77;26346;-42
2022/04/22 05:12:46;;;;;;;0.68;0.68;;;;;;;;;;1849529;76;26289;-42
2022/04/22 05:15:13;;;;;;;1.45;0.72;;;;;;;;;;1850201;76;26253;-47
2022/04/22 05:17:41;;;;;;;0.90;0.90;;;;;;;;;;1841283;76;27013;-46
2022/04/22 05:20:11;;;;;;;1.80;0.80;;;;;;;;;;1837615;77;25684;-46
2022/04/22 05:22:39;;;;;;;0.72;0.72;;;;;;;;;;1844893;77;26657;-46
2022/04/22 05:25:08;;;;;;;0.88;0.80;;;;;;;;;;1845386;76;26815;-43
2022/04/22 05:27:36;;;;;;;2.45;0.78;;;;;;;;;;1844731;77;26745;-43
2022/04/22 05:32:50;;;;;;;0.68;0.68;;;;;;;;;;1845068;76;26464;-46
2022/04/22 05:35:19;;;;;;;0.90;0.90;;;;;;;;;;1843616;76;26355;-44
2022/04/22 05:37:50;;;;;;;2.65;0.90;;;;;;;;;;1847990;76;26855;-48
2022/04/22 05:40:19;;;;;;;4.22;1.00;;;;;;;;;;1849901;76;26706;-48
2022/04/22 05:42:47;;;;;;;1.62;1.00;;;;;;;;;;1848745;77;27024;-45
2022/04/22 05:45:15;;;;;;;1.57;0.70;;;;;;;;;;1845952;76;26394;-48
2022/04/22 05:47:43;;;;;;;3.95;1.27;;;;;;;;;;1847079;76;26611;-46
2022/04/22 05:50:11;;;;;;;0.93;0.70;;;;;;;;;;1839755;77;26285;-48
2022/04/22 05:52:39;;;;;;;1.65;0.88;;;;;;;;;;1840219;77;26458;-49
2022/04/22 05:55:12;;;;;;;0.60;0.60;;;;;;;;;;1844314;76;26327;-43
2022/04/22 05:57:40;;;;;;;3.75;0.90;;;;;;;;;;1842627;77;26333;-50
2022/04/22 06:00:08;;;;;;;0.93;0.90;;;;;;;;;;1840039;76;26265;-43
2022/04/22 06:02:36;;;;;;;1.95;0.88;;;;;;;;;;1839445;77;26662;-48
2022/04/22 06:05:03;;;;;;;5.03;1.12;;;;;;;;;;1838258;77;26293;-51
2022/04/22 06:07:30;;;;;;;0.70;0.70;;;;;;;;;;1843087;77;26640;-47
2022/04/22 06:12:43;;;;;;;3.00;0.72;;;;;;;;;;1855423;76;26351;-46
2022/04/22 06:15:10;;;;;;;2.45;0.90;;;;;;;;;;1857182;76;26315;-47
2022/04/22 06:17:38;;;;;;;0.80;0.70;;;;;;;;;;1857087;77;26817;-44
2022/04/22 06:20:06;;;;;;;1.65;0.70;;;;;;;;;;1862813;76;26314;-44
2022/04/22 06:22:33;;;;;;;0.57;0.57;;;;;;;;;;1865119;75;26697;-46
2022/04/22 06:25:01;;;;;;;4.55;0.70;;;;;;;;;;1860056;77;26909;-46
2022/04/22 06:27:29;;;;;;;1.30;0.90;;;;;;;;;;1856550;77;26272;-46
2022/04/22 06:29:57;;;;;;;1.32;0.80;;;;;;;;;;1827129;78;26743;-50
2022/04/22 06:32:27;;;;;;;0.62;0.62;;;;;;;;;;1804793;78;26295;-44
2022/04/22 06:34:54;;;;;;;0.60;0.60;;;;;;;;;;1796565;80;26378;-47
2022/04/22 06:37:21;;;;;;;1.67;0.80;;;;;;;;;;1813834;78;26268;-49
2022/04/22 06:48:06;;;;;;;3.52;1.00;;;;;;;;;;1827247;78;26302;-46
2022/04/22 06:50:34;;;;;;;2.95;0.70;;;;;;;;;;1829053;78;26718;-44
2022/04/22 06:53:02;;;;;;;1.75;0.78;;;;;;;;;;1825045;77;26609;-54
2022/04/22 06:55:30;;;;;;;3.12;0.65;;;;;;;;;;1829713;77;26301;-56
2022/04/22 06:57:57;;;;;;;2.10;0.80;;;;;;;;;;1822245;77;26799;-49
2022/04/22 07:00:25;;;;;;;0.95;0.78;;;;;;;;;;1828776;77;26278;-48
2022/04/22 07:02:53;;;;;;;2.58;0.90;;;;;;;;;;1829622;77;26275;-49
2022/04/22 07:05:21;;;;;;;0.95;0.70;;;;;;;;;;1824995;77;26375;-55
2022/04/22 07:07:48;;;;;;;2.95;0.80;;;;;;;;;;1826145;77;26540;-47
2022/04/22 07:10:16;;;;;;;0.80;0.80;;;;;;;;;;1824069;77;26840;-59
2022/04/22 07:12:43;;;;;;;2.10;0.80;;;;;;;;;;1818515;78;26327;-50
2022/04/22 07:15:11;;;;;;;5.60;0.95;;;;;;;;;;1801811;78;26897;-55
2022/04/22 07:17:41;;;;;;;0.80;0.80;;;;;;;;;;1806281;78;26412;-53
2022/04/22 07:20:10;;;;;;;1.07;0.70;;;;;;;;;;1805323;78;26365;-55
2022/04/22 07:22:38;;;;;;;0.80;0.72;;;;;;;;;;1802269;79;26299;-53
2022/04/22 07:25:06;;;;;;;1.00;0.82;;;;;;;;;;1804952;78;26767;-52
2022/04/22 07:27:35;;;;;;;0.98;0.90;;;;;;;;;;1799077;78;26727;-51
2022/04/22 07:30:03;;;;;;;1.67;0.78;;;;;;;;;;1806657;78;26318;-57
2022/04/22 07:32:31;;;;;;;1.57;1.00;;;;;;;;;;1804038;79;26345;-56
2022/04/22 07:34:58;;;;;;;1.55;1.40;;;;;;;;;;1792176;78;26279;-58
2022/04/22 07:37:25;;;;;;;1.67;0.90;;;;;;;;;;1797960;78;26302;-54
2022/04/22 07:39:53;;;;;;;1.87;0.90;;;;;;;;;;1795911;78;26232;-58
2022/04/22 07:42:22;;;;;;;2.35;0.90;;;;;;;;;;1798611;78;26283;-55
2022/04/22 07:47:38;;;;;;;0.98;0.98;;;;;;;;;;1794331;78;26362;-53
2022/04/22 07:50:06;;;;;;;2.37;1.07;;;;;;;;;;1813200;78;26388;-55
2022/04/22 07:52:34;;;;;;;0.65;0.65;;;;;;;;;;1792407;78;26357;-55
2022/04/22 07:55:02;;;;;;;1.67;0.78;;;;;;;;;;1800390;78;26284;-54
2022/04/22 07:57:29;;;;;;;1.15;0.80;;;;;;;;;;1802745;78;26278;-53
2022/04/22 07:59:57;;;;;;;1.05;0.80;;;;;;;;;;1795977;79;26394;-54
2022/04/22 08:02:25;;;;;;;0.68;0.68;;;;;;;;;;1807382;78;26801;-48
2022/04/22 08:04:52;;;;;;;1.15;0.80;;;;;;;;;;1805745;78;26295;-48
2022/04/22 08:07:19;;;;;;;0.80;0.80;;;;;;;;;;1807787;78;26272;-55
2022/04/22 08:09:47;;;;;;;0.70;0.70;;;;;;;;;;1796046;78;26314;-51
2022/04/22 08:12:15;;;;;;;0.85;0.60;;;;;;;;;;1806631;78;26322;-51
2022/04/22 08:14:44;;;;;;;1.07;0.80;;;;;;;;;;1803370;78;26306;-59
2022/04/22 08:17:11;;;;;;;0.50;0.50;;;;;;;;;;1813507;78;26313;-49
2022/04/22 08:19:43;;;;;;;0.70;0.70;;;;;;;;;;1806046;78;26278;-45
2022/04/22 08:22:07;;;;;;;0.70;0.70;;;;;;;;;;1800667;78;26304;-48
2022/04/22 08:24:35;;;;;;;0.82;0.65;;;;;;;;;;1807903;78;26384;-44
2022/04/22 08:27:02;;;;;;;0.72;0.70;;;;;;;;;;1804985;78;26318;-53
2022/04/22 08:29:30;;;;;;;0.62;0.57;;;;;;;;;;1805955;78;26337;-56
2022/04/22 08:31:57;;;;;;;0.80;0.80;;;;;;;;;;1804640;78;26801;-64
2022/04/22 08:34:24;;;;;;;0.60;0.60;;;;;;;;;;1799712;78;26748;-51
2022/04/22 08:36:52;;;;;;;0.65;0.65;;;;;;;;;;1801213;78;26328;-60
2022/04/22 08:39:19;;;;;;;5.05;1.22;;;;;;;;;;1805598;78;26313;-60
2022/04/22 08:41:48;;;;;;;0.70;0.70;;;;;;;;;;1805955;78;26279;-51
2022/04/22 08:44:17;;;;;;;0.68;0.68;;;;;;;;;;1803733;78;26347;-53
2022/04/22 08:52:16;;;;;;;0.70;0.70;;;;;;;;;;1801966;79;26353;-59
2022/04/22 08:54:48;;;;;;;1.02;0.60;;;;;;;;;;1805931;78;26316;-52
2022/04/22 08:57:13;;;;;;;0.70;0.70;;;;;;;;;;1802127;78;26364;-59
2022/04/22 08:59:41;;;;;;;0.50;0.50;;;;;;;;;;1804818;78;26282;-61
2022/04/22 09:02:10;;;;;;;0.40;0.40;;;;;;;;;;1805951;78;26857;-56
2022/04/22 09:04:37;;;;;;;0.50;0.50;;;;;;;;;;1804853;78;26274;-55
2022/04/22 09:07:04;;;;;;;0.50;0.50;;;;;;;;;;1802060;78;26278;-56
2022/04/22 09:09:32;;;;;;;0.50;0.50;;;;;;;;;;1806572;78;26885;-54
2022/04/22 09:12:13;;;;;;;0.60;0.60;;;;;;;;;;1803850;78;26379;-58
2022/04/22 09:14:47;;;;;;;0.55;0.55;;;;;;;;;;1801244;78;26777;-53
2022/04/22 09:17:16;;;;;;;0.40;0.40;;;;;;;;;;1804002;79;26313;-48
2022/04/22 09:19:44;;;;;;;0.50;0.50;;;;;;;;;;1807013;78;26301;-52
2022/04/22 09:22:11;;;;;;;0.40;0.40;;;;;;;;;;1804850;78;26293;-54
2022/04/22 09:24:55;;;;;;;1.82;0.53;;;;;;;;;;1805658;78;26687;-56
2022/04/22 09:27:33;;;;;;;0.60;0.60;;;;;;;;;;1803219;78;26277;-55
2022/04/22 09:30:00;;;;;;;0.40;0.40;;;;;;;;;;1806102;78;26262;-57
2022/04/22 09:32:29;;;;;;;0.60;0.42;;;;;;;;;;1820022;78;26264;-47
2022/04/22 09:34:57;;;;;;;0.50;0.50;;;;;;;;;;1804737;78;26294;-58
2022/04/22 09:42:59;;;;;;;0.50;0.50;;;;;;;;;;1806019;78;26360;-57
2022/04/22 09:45:37;;;;;;;0.50;0.50;;;;;;;;;;1803444;79;26302;-60
2022/04/22 09:48:06;;;;;;;0.40;0.40;;;;;;;;;;1805997;78;26274;-55
2022/04/22 09:50:44;;;;;;;0.42;0.42;;;;;;;;;;1805277;78;26332;-60
2022/04/22 09:53:12;;;;;;;0.40;0.40;;;;;;;;;;1801556;79;26418;-51
2022/04/22 09:55:44;;;;;;;0.30;0.30;;;;;;;;;;1804813;78;26325;-54
2022/04/22 09:58:11;;;;;;;0.50;0.50;;;;;;;;;;1805598;78;26348;-48
2022/04/22 10:00:39;;;;;;;0.40;0.40;;;;;;;;;;1801933;78;26370;-55
2022/04/22 10:03:08;;;;;;;0.45;0.45;;;;;;;;;;1805955;78;27814;-58
2022/04/22 10:05:35;;;;;;;0.53;0.53;;;;;;;;;;1813166;78;26942;-48
2022/04/22 10:08:03;;;;;;;0.45;0.45;;;;;;;;;;1806164;78;26377;-57
2022/04/22 10:10:32;;;;;;;1.15;0.40;;;;;;;;;;1802447;78;26824;-48
2022/04/22 10:13:01;;;;;;;0.50;0.50;;;;;;;;;;1803294;78;26844;-57
2022/04/22 10:15:30;;;;;;;0.47;0.47;;;;;;;;;;1807709;78;26886;-53
2022/04/22 10:17:57;;;;;;;0.33;0.33;;;;;;;;;;1813982;78;27011;-50
2022/04/22 10:20:25;;;;;;;0.37;0.37;;;;;;;;;;1813390;78;26302;-50
2022/04/22 10:22:52;;;;;;;0.42;0.42;;;;;;;;;;1813956;78;26270;-55
2022/04/22 10:25:20;;;;;;;0.40;0.40;;;;;;;;;;1813571;78;26274;-53
2022/04/22 10:27:48;;;;;;;0.40;0.40;;;;;;;;;;1810674;78;26240;-57
2022/04/22 10:30:16;;;;;;;0.40;0.40;;;;;;;;;;1810992;78;26291;-55
2022/04/22 10:32:45;;;;;;;0.40;0.40;;;;;;;;;;1816675;78;26317;-53
2022/04/22 10:35:14;;;;;;;0.40;0.40;;;;;;;;;;1813155;78;26384;-54
2022/04/22 10:37:45;;;;;;;0.40;0.40;;;;;;;;;;1816580;78;26809;-50
2022/04/22 10:40:13;;;;;;;0.50;0.50;;;;;;;;;;1814219;78;26315;-51
2022/04/22 10:42:41;;;;;;;0.30;0.30;;;;;;;;;;1812624;78;26278;-51
2022/04/22 10:47:55;;;;;;;0.45;0.45;;;;;;;;;;1812932;78;26432;-49
2022/04/22 10:50:30;;;;;;;0.40;0.40;;;;;;;;;;1808200;78;26729;-46
2022/04/22 10:53:04;;;;;;;0.55;0.55;;;;;;;;;;1809431;78;26291;-51
2022/04/22 10:55:35;;;;;;;0.30;0.30;;;;;;;;;;1808376;78;25784;-54
2022/04/22 10:58:16;;;;;;;0.40;0.40;;;;;;;;;;1814361;78;26270;-43
2022/04/22 11:00:44;;;;;;;0.40;0.40;;;;;;;;;;1804396;78;26810;-47
2022/04/22 11:03:20;;;;;;;0.40;0.40;;;;;;;;;;1813522;78;26390;-55
2022/04/22 11:05:51;;;;;;;0.33;0.33;;;;;;;;;;1814010;78;26848;-51
2022/04/22 11:08:26;;;;;;;0.20;0.20;;;;;;;;;;1811966;78;26616;-48
2022/04/22 11:10:55;;;;;;;0.40;0.40;;;;;;;;;;1815625;78;26417;-53
2022/04/22 11:13:30;;;;;;;0.40;0.40;;;;;;;;;;1806098;78;26741;-56
2022/04/22 11:15:58;;;;;;;0.42;0.42;;;;;;;;;;1790668;77;26661;-52
2022/04/22 11:18:26;;;;;;;0.40;0.40;;;;;;;;;;1805756;78;26347;-47
2022/04/22 11:21:03;;;;;;;0.50;0.50;;;;;;;;;;1802799;78;26322;-54
2022/04/22 11:23:41;;;;;;;0.40;0.40;;;;;;;;;;1804805;78;26560;-46
2022/04/22 11:26:08;;;;;;;0.82;0.82;;;;;;;;;;1796536;78;27202;-52
2022/04/22 11:28:37;;;;;;;0.40;0.40;;;;;;;;;;1804934;78;26290;-55
2022/04/22 11:31:08;;;;;;;0.40;0.40;;;;;;;;;;1805034;78;26274;-54
2022/04/22 11:33:37;;;;;;;0.33;0.33;;;;;;;;;;1805995;78;27254;-47
2022/04/22 11:36:05;;;;;;;0.40;0.40;;;;;;;;;;1796841;79;26288;-53
2022/04/22 11:38:33;;;;;;;0.50;0.50;;;;;;;;;;1801931;78;26943;-51
2022/04/22 11:41:00;;;;;;;0.40;0.40;;;;;;;;;;1811855;77;26366;-48
2022/04/22 11:43:31;;;;;;;1.20;0.40;;;;;;;;;;1799251;78;26282;-48
2022/04/22 11:45:58;;;;;;;0.30;0.30;;;;;;;;;;1798025;78;26274;-49
2022/04/22 11:48:26;;;;;;;0.50;0.50;;;;;;;;;;1798040;78;26302;-49
2022/04/22 11:50:55;;;;;;;0.45;0.45;;;;;;;;;;1793952;80;26263;-46
2022/04/22 11:53:29;;;;;;;0.40;0.40;;;;;;;;;;1792443;78;26317;-52
2022/04/22 11:55:55;;;;;;;0.45;0.45;;;;;;;;;;1797904;78;26294;-54
2022/04/22 11:58:29;;;;;;;0.42;0.42;;;;;;;;;;1791719;78;26631;-47
2022/04/22 12:06:28;;;;;;;0.37;0.37;;;;;;;;;;1798372;80;26590;-52
2022/04/22 12:09:03;;;;;;;0.33;0.33;;;;;;;;;;1798271;78;26231;-49
2022/04/22 12:11:30;;;;;;;0.42;0.42;;;;;;;;;;1794681;80;26383;-50
2022/04/22 12:13:57;;;;;;;17.07;0.65;;;;;;;;;;1797839;80;26270;-54
2022/04/22 12:16:26;;;;;;;0.72;0.50;;;;;;;;;;1801783;79;26597;-47
2022/04/22 12:18:54;;;;;;;0.40;0.40;;;;;;;;;;1806719;78;26218;-48
2022/04/22 12:21:23;;;;;;;0.50;0.50;;;;;;;;;;1809772;78;26246;-49
2022/04/22 12:23:51;;;;;;;0.45;0.45;;;;;;;;;;1807687;79;26357;-48
2022/04/22 12:26:22;;;;;;;0.40;0.40;;;;;;;;;;1807067;79;27508;-55
2022/04/22 12:29:00;;;;;;;0.40;0.40;;;;;;;;;;1806257;79;26274;-46
2022/04/22 12:31:29;;;;;;;0.60;0.60;;;;;;;;;;1803445;78;27581;-52
2022/04/22 12:33:58;;;;;;;0.50;0.50;;;;;;;;;;1802084;79;26337;-50
2022/04/22 12:36:25;;;;;;;0.50;0.50;;;;;;;;;;1805398;79;26357;-51
2022/04/22 12:38:53;;;;;;;1.55;0.47;;;;;;;;;;1806585;78;26834;-56
2022/04/22 12:41:25;;;;;;;0.45;0.45;;;;;;;;;;1792047;78;26319;-54
2022/04/22 12:43:51;;;;;;;0.40;0.40;;;;;;;;;;1807429;78;26400;-50
2022/04/22 12:52:09;;;;;;;0.40;0.40;;;;;;;;;;1804265;78;26787;-48
2022/04/22 12:54:37;;;;;;;0.30;0.30;;;;;;;;;;1815704;78;26699;-52
2022/04/22 12:57:09;;;;;;;0.53;0.53;;;;;;;;;;1797701;78;26818;-51
2022/04/22 12:59:42;;;;;;;0.50;0.50;;;;;;;;;;1800158;78;26329;-48
2022/04/22 13:02:10;;;;;;;0.40;0.40;;;;;;;;;;1803994;78;26299;-56
2022/04/22 13:04:51;;;;;;;1.55;0.40;;;;;;;;;;1808448;78;26325;-58
2022/04/22 13:07:18;;;;;;;1.12;0.40;;;;;;;;;;1743825;79;26314;-52
2022/04/22 13:09:46;;;;;;;0.40;0.40;;;;;;;;;;1805220;78;26319;-49
2022/04/22 13:12:14;;;;;;;0.47;0.47;;;;;;;;;;1807503;78;26306;-45
2022/04/22 13:14:41;;;;;;;0.40;0.40;;;;;;;;;;1797937;78;26840;-52
2022/04/22 13:17:21;;;;;;;0.30;0.30;;;;;;;;;;1796145;78;26341;-49
2022/04/22 13:19:49;;;;;;;0.33;0.33;;;;;;;;;;1806152;78;26303;-53
2022/04/22 13:22:16;;;;;;;0.30;0.30;;;;;;;;;;1801992;79;26287;-50
2022/04/22 13:24:44;;;;;;;0.40;0.40;;;;;;;;;;1803390;78;26342;-45
2022/04/22 13:27:13;;;;;;;0.35;0.35;;;;;;;;;;1795625;78;26614;-48
2022/04/22 13:29:40;;;;;;;0.47;0.47;;;;;;;;;;1795562;79;26364;-50
2022/04/22 13:32:08;;;;;;;0.33;0.33;;;;;;;;;;1790057;78;26376;-55
2022/04/22 13:34:36;;;;;;;0.40;0.40;;;;;;;;;;1794505;79;26797;-52
2022/04/22 13:37:03;;;;;;;0.40;0.40;;;;;;;;;;1802771;79;26814;-56
2022/04/22 13:39:30;;;;;;;0.50;0.50;;;;;;;;;;1795015;78;26310;-52
2022/04/22 13:41:58;;;;;;;0.55;0.47;;;;;;;;;;1800536;78;26357;-52
2022/04/22 13:52:42;;;;;;;0.40;0.40;;;;;;;;;;1805597;78;26288;-53
2022/04/22 13:55:11;;;;;;;0.30;0.30;;;;;;;;;;1839330;76;26304;-55
2022/04/22 13:57:38;;;;;;;1.12;0.40;;;;;;;;;;1840996;76;26339;-57
2022/04/22 14:00:06;;;;;;;1.45;0.40;;;;;;;;;;1847854;76;26757;-55
2022/04/22 14:02:34;;;;;;;0.35;0.35;;;;;;;;;;1847105;76;26823;-49
2022/04/22 14:05:01;;;;;;;0.50;0.40;;;;;;;;;;1841820;76;26721;-52
2022/04/22 14:07:28;;;;;;;0.50;0.50;;;;;;;;;;1853747;76;26749;-54
2022/04/22 14:09:57;;;;;;;0.40;0.40;;;;;;;;;;1852091;76;26769;-51
2022/04/22 14:12:25;;;;;;;0.33;0.33;;;;;;;;;;1841038;76;26285;-55
2022/04/22 14:14:52;;;;;;;0.30;0.30;;;;;;;;;;1848768;76;26358;-49
2022/04/22 14:17:20;;;;;;;0.45;0.45;;;;;;;;;;1868392;74;26960;-48
2022/04/22 14:19:47;;;;;;;0.50;0.50;;;;;;;;;;1848568;76;26256;-56
2022/04/22 14:22:15;;;;;;;0.40;0.40;;;;;;;;;;1834056;76;26672;-51
2022/04/22 14:24:43;;;;;;;0.30;0.30;;;;;;;;;;1848196;76;26687;-54
2022/04/22 14:27:13;;;;;;;0.30;0.30;;;;;;;;;;1835322;77;26640;-57
2022/04/22 14:29:40;;;;;;;0.50;0.50;;;;;;;;;;1846641;77;26796;-50
2022/04/22 14:32:10;;;;;;;1.10;0.40;;;;;;;;;;1849650;76;26257;-59
2022/04/22 14:34:37;;;;;;;0.40;0.40;;;;;;;;;;1848684;76;26752;-54
2022/04/22 14:37:06;;;;;;;0.40;0.40;;;;;;;;;;1855902;76;26642;-52
2022/04/22 14:39:34;;;;;;;0.30;0.30;;;;;;;;;;1848057;77;26273;-53
2022/04/22 14:42:02;;;;;;;0.45;0.45;;;;;;;;;;1846652;77;26749;-61
2022/04/22 14:44:29;;;;;;;0.30;0.30;;;;;;;;;;1839632;77;26351;-59
2022/04/22 14:46:58;;;;;;;0.50;0.50;;;;;;;;;;1843626;76;26201;-59
2022/04/22 14:49:25;;;;;;;0.30;0.30;;;;;;;;;;1840055;77;26809;-50
2022/04/22 14:51:53;;;;;;;0.50;0.50;;;;;;;;;;1843385;77;26622;-52
2022/04/22 14:54:21;;;;;;;0.50;0.50;;;;;;;;;;1847231;77;26768;-55
2022/04/22 14:56:48;;;;;;;0.30;0.30;;;;;;;;;;1846165;76;26249;-57
2022/04/22 14:59:17;;;;;;;0.40;0.40;;;;;;;;;;1841463;76;26253;-59
2022/04/22 15:01:44;;;;;;;0.40;0.40;;;;;;;;;;1839263;76;26287;-49
2022/04/22 15:04:11;;;;;;;0.42;0.42;;;;;;;;;;1845260;76;26312;-53
2022/04/22 15:06:39;;;;;;;0.50;0.50;;;;;;;;;;1845179;76;26253;-48
2022/04/22 15:09:07;;;;;;;0.40;0.40;;;;;;;;;;1843605;76;26327;-54
2022/04/22 15:11:34;;;;;;;0.40;0.40;;;;;;;;;;1846382;76;26367;-56
2022/04/22 15:14:03;;;;;;;0.33;0.33;;;;;;;;;;1839927;76;26348;-54
2022/04/22 15:16:31;;;;;;;0.50;0.50;;;;;;;;;;1837772;76;26769;-54
2022/04/22 15:24:30;;;;;;;2.02;0.40;;;;;;;;;;1854615;76;26785;-47
2022/04/22 15:26:58;;;;;;;0.45;0.45;;;;;;;;;;1854654;76;26713;-55
2022/04/22 15:29:31;;;;;;;0.37;0.37;;;;;;;;;;1856794;76;26388;-54
2022/04/22 15:31:55;;;;;;;1.30;0.45;;;;;;;;;;1850520;76;26283;-53
2022/04/22 15:34:23;;;;;;;0.50;0.50;;;;;;;;;;1858324;76;26316;-56
2022/04/22 15:36:50;;;;;;;0.50;0.50;;;;;;;;;;1856602;76;26547;-55
2022/04/22 15:39:20;;;;;;;0.40;0.40;;;;;;;;;;1851887;76;26291;-55
2022/04/22 15:41:47;;;;;;;0.60;0.60;;;;;;;;;;1851709;76;25858;-56
2022/04/22 15:44:16;;;;;;;0.37;0.37;;;;;;;;;;1852364;76;26352;-52
2022/04/22 15:46:43;;;;;;;0.50;0.50;;;;;;;;;;1847497;76;26312;-56
2022/04/22 15:49:10;;;;;;;0.70;0.70;;;;;;;;;;1853002;76;26324;-56
2022/04/22 15:51:37;;;;;;;0.70;0.70;;;;;;;;;;1855260;76;26371;-54
2022/04/22 15:54:05;;;;;;;0.60;0.60;;;;;;;;;;1846061;76;26198;-56
2022/04/22 15:56:34;;;;;;;0.60;0.60;;;;;;;;;;1850456;76;26261;-51
2022/04/22 15:59:02;;;;;;;0.60;0.60;;;;;;;;;;1856648;76;26265;-53
2022/04/22 16:01:35;;;;;;;0.82;0.80;;;;;;;;;;1849099;76;26651;-56
2022/04/22 16:03:58;;;;;;;0.70;0.70;;;;;;;;;;1856216;76;26672;-53
2022/04/22 16:06:27;;;;;;;1.02;0.70;;;;;;;;;;1848098;76;26882;-55
2022/04/22 16:08:55;;;;;;;0.70;0.70;;;;;;;;;;1849179;76;27332;-54
2022/04/22 16:16:57;;;;;;;0.60;0.60;;;;;;;;;;1851189;76;26795;-54
2022/04/22 16:19:24;;;;;;;0.62;0.62;;;;;;;;;;1848946;77;26378;-56